• Join FlightAware (Why Join?)
  • Login
  • US Flag 
10:19AM EDT


 

Airport Tracker/Info


-or-


 

Live Flight TrackerFlight Track Log ✈ LAK15 ✈ 11-May-2013 ✈ KHTO - KAPF

Flight Track Log - Related Links

Times and Time Zones

All times are in EDT time to prevent confusion due to time zone crossing. See the LAK15 flight status page for this flight to view local times or setup timezone preferences in your user account.

Time Position Orientation Groundspeed Altitude Reporting Facility
EDT Latitude Longitude Course Direction KTS MPH feet Rate Location/Type
04:30PM 40.9394 -72.3631 217° Southwest 187 215 3,500  Level Boston Center
04:31PM 40.8936 -72.3989 211° Southwest 187 215 5,600 2,100 Climbing Boston Center
04:32PM 40.8500 -72.4319 210° Southwest 193 222 7,800 2,100 Climbing Boston Center
04:33PM 40.8103 -72.4758 220° Southwest 188 216 9,800 1,860 Climbing Boston Center
04:34PM 40.7686 -72.5086 211° Southwest 188 216 11,600 1,860 Climbing Boston Center
04:35PM 40.7289 -72.5469 216° Southwest 177 204 13,600 1,740 Climbing Boston Center
04:36PM 40.4465 -72.8535 217° Southwest  Level FlightAware Approximate
04:36PM 40.6936 -72.5850 219° Southwest 172 198 15,100  Level Boston Center
04:37PM 40.6539 -72.6317 222° Southwest 177 204 16,200 1,260 Climbing Boston Center
04:38PM 40.6100 -72.6833 222° Southwest 198 228 17,700 1,440 Climbing Boston Center
04:39PM 40.5703 -72.7269 220° Southwest 212 244 19,100 1,260 Climbing Boston Center
04:40PM 40.5244 -72.7786 221° Southwest 217 250 20,300 1,260 Climbing Boston Center
04:41PM 40.4742 -72.8331 219° Southwest 217 250 21,700 1,260 Climbing Boston Center
04:42PM 40.4197 -72.8736 210° Southwest 227 261 22,900 1,200 Climbing Boston Center
04:43PM 40.3572 -72.9083 203° Southwest 238 274 24,100 1,320 Climbing Boston Center
04:44PM 40.2986 -72.9433 204° Southwest 238 274 25,600 1,140 Climbing Boston Center
04:45PM 40.2319 -72.9808 203° Southwest 238 274 26,400 1,020 Climbing Boston Center
04:46PM 40.1756 -73.0103 202° Southwest 238 274 27,700 1,140 Climbing Boston Center
04:47PM 40.1169 -73.0478 206° Southwest 238 274 28,700 840 Climbing Boston Center
04:48PM 40.0606 -73.0881 209° Southwest 238 274 29,400 840 Climbing Boston Center
04:49PM 40.0081 -73.1361 215° Southwest 238 274 30,400 900 Climbing Boston Center
04:50PM 39.9556 -73.1844 215° Southwest 238 274 31,200 720 Climbing Boston Center
04:52PM 39.8847 -73.2689 222° Southwest 224 258 32,400 540 Climbing Washington Center
04:53PM 39.8400 -73.3217 222° Southwest 218 251 32,700 420 Climbing Washington Center
04:54PM 39.7953 -73.3825 226° Southwest 223 257 33,300 540 Climbing Washington Center
04:55PM 39.7442 -73.4408 221° Southwest 228 262 33,900 480 Climbing Washington Center
04:56PM 39.7117 -73.4956 232° Southwest 221 254 34,300 360 Climbing Washington Center
04:57PM 39.6544 -73.5539 218° Southwest 232 267 34,700 540 Climbing Washington Center
04:58PM 39.6094 -73.6092 223° Southwest 232 267 35,400 540 Climbing Washington Center
04:59PM 39.5647 -73.6669 225° Southwest 232 267 35,800 300 Climbing Washington Center
05:00PM 39.5175 -73.7247 223° Southwest 238 274 36,000 60 Climbing Washington Center
05:01PM 39.4706 -73.7797 222° Southwest 238 274 36,000  Level Washington Center
05:02PM 39.4236 -73.8400 225° Southwest 238 274 36,000  Level Washington Center
05:03PM 39.3722 -73.9003 222° Southwest 238 274 36,000  Level Washington Center
05:04PM 39.3231 -73.9603 223° Southwest 238 274 36,000 -60 Level Washington Center
05:05PM 39.2758 -74.0206 225° Southwest 238 274 35,900  Descending Washington Center
05:06PM 39.2247 -74.0831 223° Southwest 238 274 36,000  Climbing Washington Center
05:07PM 39.1753 -74.1431 223° Southwest 238 274 36,000 60 Level Washington Center
05:08PM 39.1322 -74.1975 224° Southwest 238 274 36,200  Climbing Washington Center
05:09PM 39.0828 -74.2547 222° Southwest 238 274 36,000 -120 Descending Washington Center
05:10PM 39.0336 -74.3169 225° Southwest 238 274 36,000  Level Washington Center
05:11PM 38.9842 -74.3767 223° Southwest 238 274 36,100  Climbing Washington Center
05:12PM 38.9325 -74.4361 222° Southwest 238 274 36,000 -60 Descending Washington Center
05:13PM 38.8831 -74.4983 224° Southwest 243 280 36,000  Level Washington Center
05:14PM 38.8358 -74.5550 223° Southwest 243 280 36,000  Level Washington Center
05:15PM 38.7842 -74.6142 222° Southwest 243 280 36,000  Level Washington Center
05:16PM 38.7344 -74.6708 222° Southwest 238 274 36,000  Level Washington Center
05:17PM 38.6869 -74.7300 224° Southwest 238 274 36,000  Level Washington Center
05:18PM 38.6375 -74.7889 223° Southwest 238 274 36,000  Level Washington Center
05:19PM 38.5708 -74.8242 202° Southwest 249 287 36,000  Level Washington Center
05:20PM 38.5025 -74.8594 202° Southwest 256 295 36,000  Level Washington Center
05:21PM 38.4381 -74.8972 205° Southwest 261 300 36,000  Level Washington Center
05:22PM 38.3694 -74.9322 202° Southwest 261 300 36,000  Level Washington Center
05:23PM 38.3050 -74.9700 205° Southwest 266 306 36,000  Level Washington Center
05:24PM 38.2364 -75.0050 202° Southwest 266 306 36,000  Level Washington Center
05:25PM 38.1656 -75.0425 203° Southwest 272 313 36,000  Level Washington Center
05:26PM 38.0969 -75.0853 206° Southwest 272 313 36,100  Climbing Washington Center
05:27PM 38.0242 -75.1200 201° Southwest 272 313 36,100  Level Washington Center
05:28PM 37.9533 -75.1572 203° Southwest 272 313 36,100 -60 Level Washington Center
05:29PM 37.8806 -75.1972 203° Southwest 277 319 36,000 -60 Descending Washington Center
05:30PM 37.8075 -75.2344 202° Southwest 277 319 36,000  Level Washington Center
05:31PM 37.7347 -75.2689 201° Southwest 277 319 36,000  Level Washington Center
05:32PM 37.6639 -75.3111 205° Southwest 277 319 36,000  Level Washington Center
05:33PM 37.5931 -75.3456 201° Southwest 277 319 36,000  Level Washington Center
05:34PM 37.5222 -75.3822 202° Southwest 277 319 36,000  Level Washington Center
05:35PM 37.4533 -75.4217 204° Southwest 277 319 36,100  Climbing Washington Center
05:36PM 37.3825 -75.4558 201° Southwest 272 313 36,100 -60 Level Washington Center
05:37PM 37.3117 -75.4953 204° Southwest 272 313 36,000 -60 Descending Washington Center
05:38PM 37.2408 -75.5319 202° Southwest 272 313 36,000  Level Washington Center
05:39PM 37.1700 -75.5683 202° Southwest 272 313 36,000  Level Washington Center
05:40PM 37.0989 -75.6050 202° Southwest 272 313 36,000  Level Washington Center
05:41PM 37.0281 -75.6414 202° Southwest 272 313 36,100  Climbing Washington Center
05:42PM 36.9572 -75.6778 202° Southwest 272 313 36,000 -60 Descending Washington Center
05:43PM 36.8861 -75.7139 202° Southwest 272 313 36,000  Level Washington Center
05:44PM 36.8153 -75.7528 204° Southwest 272 313 36,000  Level Washington Center
05:45PM 36.7442 -75.7942 205° Southwest 277 319 36,000  Level Washington Center
05:46PM 36.6711 -75.8328 203° Southwest 277 319 36,000  Level Washington Center
05:47PM 36.6000 -75.8739 205° Southwest 277 319 36,000  Level Washington Center
05:48PM 36.5269 -75.9150 204° Southwest 277 319 36,000  Level Washington Center
05:49PM 36.4475 -75.9586 204° Southwest 277 319 36,000  Level Washington Center
05:50PM 36.3764 -75.9994 205° Southwest 282 325 36,000  Level Washington Center
05:51PM 36.3033 -76.0353 202° Southwest 282 325 36,000  Level Washington Center
05:52PM 36.2322 -76.0761 205° Southwest 282 325 36,100  Climbing Washington Center
05:53PM 36.1611 -76.1142 203° Southwest 282 325 36,000  Descending Washington Center
05:54PM 36.0858 -76.1575 205° Southwest 282 325 36,100  Climbing Washington Center
05:55PM 36.0125 -76.1956 203° Southwest 282 325 36,000 -60 Descending Washington Center
05:56PM 35.9394 -76.2333 203° Southwest 282 325 36,000  Level Washington Center
05:57PM 35.8661 -76.2764 205° Southwest 287 330 36,000  Level Washington Center
05:58PM 35.7928 -76.3117 201° Southwest 287 330 36,000  Level Washington Center
05:59PM 35.7197 -76.3494 203° Southwest 292 336 36,000  Level Washington Center
06:00PM 35.6464 -76.3919 205° Southwest 292 336 36,100  Climbing Washington Center
06:01PM 35.5753 -76.4297 203° Southwest 292 336 36,000  Descending Washington Center
06:02PM 35.5019 -76.4697 204° Southwest 292 336 36,100  Climbing Washington Center
06:03PM 35.4286 -76.5097 204° Southwest 297 342 36,000 -60 Descending Washington Center
06:04PM 35.3572 -76.5497 205° Southwest 297 342 36,000  Level Washington Center
06:05PM 35.2797 -76.5919 204° Southwest 291 335 36,100  Climbing Washington Center
06:06PM 35.2064 -76.6317 204° Southwest 296 341 36,000 -60 Descending Washington Center
06:07PM 35.1308 -76.6714 203° Southwest 296 341 36,000  Level Washington Center
06:08PM 35.0553 -76.7136 205° Southwest 296 341 36,000  Level Washington Center
06:09PM 34.9778 -76.7506 201° Southwest 296 341 36,000  Level Washington Center
06:10PM 34.9022 -76.7900 203° Southwest 296 341 36,000  Level Washington Center
06:11PM 34.8267 -76.8319 205° Southwest 301 346 36,100  Climbing Washington Center
06:12PM 34.7472 -76.8711 202° Southwest 301 346 36,000 -60 Descending Washington Center
06:13PM 34.6736 -76.9103 204° Southwest 301 346 36,000  Level Washington Center
06:14PM 34.5939 -76.9494 202° Southwest 296 341 36,100  Climbing Washington Center
06:15PM 34.5161 -76.9911 204° Southwest 296 341 36,100 -60 Level Washington Center
06:16PM 34.4386 -77.0300 202° Southwest 296 341 36,000  Descending Washington Center
06:17PM 34.3631 -77.0714 204° Southwest 296 341 36,100  Climbing Washington Center
06:18PM 34.2811 -77.1103 201° Southwest 296 341 36,100 -60 Level Washington Center
06:19PM 34.2014 -77.1489 202° Southwest 296 341 36,000 120 Descending Washington Center
06:20PM 34.1236 -77.1925 205° Southwest 301 346 36,400 300 Climbing Washington Center
06:21PM 34.0481 -77.2286 202° Southwest 301 346 36,700 360 Climbing Washington Center
06:22PM 33.9722 -77.2672 203° Southwest 301 346 37,200 420 Climbing Washington Center
06:23PM 33.8989 -77.3033 202° Southwest 294 338 37,600 240 Climbing Washington Center
06:25PM 33.7697 -77.3689 203° Southwest 285 328 38,000 240 Climbing Jacksonville Center
06:26PM 33.6961 -77.4036 201° Southwest 285 328 38,400 300 Climbing Jacksonville Center
06:28PM 33.5511 -77.4772 203° Southwest 290 334 38,900 300 Climbing Jacksonville Center
06:29PM 33.4819 -77.5139 204° Southwest 290 334 39,300 300 Climbing Jacksonville Center
06:30PM 33.4103 -77.5506 203° Southwest 290 334 39,600 300 Climbing Jacksonville Center
06:31PM 33.3408 -77.5847 202° Southwest 285 328 39,900 180 Climbing Jacksonville Center
06:32PM 33.2692 -77.6186 202° Southwest 285 328 40,000  Climbing Jacksonville Center
06:33PM 33.1978 -77.6553 203° Southwest 285 328 40,000  Level Jacksonville Center
06:34PM 33.1219 -77.6919 202° Southwest 290 334 40,000  Level Jacksonville Center
06:35PM 33.0464 -77.7311 203° Southwest 295 339 40,000  Level Jacksonville Center
06:36PM 32.9686 -77.7675 201° Southwest 295 339 40,000  Level Jacksonville Center
06:37PM 32.8908 -77.8067 203° Southwest 300 345 40,000  Level Jacksonville Center
06:38PM 32.8150 -77.8431 202° Southwest 300 345 40,000  Level Jacksonville Center
06:39PM 32.7375 -77.8819 203° Southwest 300 345 40,000  Level Jacksonville Center
06:40PM 32.6533 -77.9211 201° Southwest 305 351 40,000  Level Jacksonville Center
06:41PM 32.5736 -77.9625 204° Southwest 305 351 40,000  Level Jacksonville Center
06:42PM 32.4956 -77.9989 201° Southwest 305 351 40,000  Level Jacksonville Center
06:43PM 32.4158 -78.0400 204° Southwest 305 351 40,000  Level Jacksonville Center
06:44PM 32.3381 -78.0761 201° Southwest 305 351 40,000  Level Jacksonville Center
06:45PM 32.2581 -78.1172 203° Southwest 310 357 40,000  Level Jacksonville Center
06:46PM 32.1781 -78.1533 201° Southwest 310 357 40,000  Level Jacksonville Center
06:47PM 32.0981 -78.1917 202° Southwest 310 357 40,000  Level Jacksonville Center
06:48PM 32.0183 -78.2350 205° Southwest 310 357 40,000  Level Jacksonville Center
06:49PM 31.9406 -78.2781 205° Southwest 310 357 40,000  Level Jacksonville Center
06:50PM 31.8583 -78.3164 202° Southwest 317 365 40,000  Level Jacksonville Center
06:51PM 31.7786 -78.3569 203° Southwest 317 365 40,000  Level Jacksonville Center
06:52PM 31.6922 -78.3978 202° Southwest 317 365 40,000  Level Jacksonville Center
06:53PM 31.6142 -78.4333 201° Southwest 317 365 40,000  Level Jacksonville Center
06:54PM 31.5281 -78.4764 203° Southwest 327 376 40,000  Level Jacksonville Center
06:55PM 31.4458 -78.5144 202° Southwest 330 380 40,000  Level Jacksonville Center
06:56PM 31.3639 -78.5572 204° Southwest 333 383 40,000  Level Jacksonville Center
06:57PM 31.2775 -78.5953 201° Southwest 331 381 40,000  Level Jacksonville Center
06:58PM 31.1972 -78.6328 202° Southwest 331 381 40,000  Level Jacksonville Center
06:59PM 31.1111 -78.6756 203° Southwest 331 381 40,000  Level Jacksonville Center
07:00PM 31.0289 -78.7133 201° Southwest 326 375 40,000  Level Jacksonville Center
07:01PM 30.9508 -78.7506 202° Southwest 331 381 40,000  Level Jacksonville Center
07:02PM 30.8664 -78.7906 202° Southwest 331 381 40,000  Level Jacksonville Center
07:03PM 30.7864 -78.8328 204° Southwest 331 381 40,000  Level Jacksonville Center
07:04PM 30.6936 -78.8681 198° South 337 388 40,000  Level Jacksonville Center
07:05PM 30.6133 -78.9100 204° Southwest 337 388 40,000  Level Jacksonville Center
07:05PM 30.5864 -78.9225 202° Southwest 333 383 40,000  Level Miami Center
07:06PM 30.5025 -78.9617 202° Southwest 328 377 40,000  Level Miami Center
07:07PM 30.4206 -79.0011 203° Southwest 328 377 40,000  Level Miami Center
07:08PM 30.3303 -79.0375 199° South 328 377 40,000  Level Miami Center
07:09PM 30.2486 -79.0742 201° Southwest 338 389 40,000  Level Miami Center
07:10PM 30.1603 -79.1133 201° Southwest 333 383 40,000  Level Miami Center
07:11PM 30.0764 -79.1500 201° Southwest 333 383 40,000  Level Miami Center
07:12PM 29.9778 -79.1933 201° Southwest 333 383 40,000 -480 Level Miami Center
07:13PM 29.8914 -79.2369 204° Southwest 338 389 39,100 -1,080 Descending Miami Center
07:14PM 29.8011 -79.2803 203° Southwest 344 396 37,900 -1,080 Descending Miami Center
07:15PM 29.7047 -79.3092 195° South 355 409 37,000 -1,080 Descending Miami Center
07:16PM 29.6206 -79.3528 204° Southwest 350 403 35,800 -1,020 Descending Miami Center
07:17PM 29.5322 -79.3911 201° Southwest 350 403 35,000 -900 Descending Miami Center
07:18PM 29.4419 -79.4225 197° South 345 397 34,000 -1,020 Descending Miami Center
07:19PM 29.3558 -79.4608 201° Southwest 339 390 33,000 -960 Descending Miami Center
07:20PM 29.2694 -79.5064 205° Southwest 339 390 32,100 -960 Descending Miami Center
07:21PM 29.1831 -79.5567 207° Southwest 344 396 31,100 -900 Descending Miami Center
07:22PM 29.1025 -79.6164 213° Southwest 344 396 30,300 -1,740 Descending Miami Center
07:23PM 29.0219 -79.6808 215° Southwest 349 402 27,700 4,800 Descending Miami Center
07:24PM 28.9456 -79.7453 216° Southwest 354 407 40,000 -1,980 Climbing Miami Center
07:25PM 28.8756 -79.8003 215° Southwest 339 390 23,800 -8,520 Descending Miami Center
07:26PM 28.8036 -79.8528 213° Southwest 328 377 23,000 -1,200 Descending Miami Center
07:27PM 28.7317 -79.9031 212° Southwest 317 365 21,400 -1,380 Descending Miami Center
07:28PM 28.6764 -79.9536 219° Southwest 317 365 20,300 -720 Descending Miami Center
07:29PM 28.6261 -80.0514 240° Southwest 307 353 20,000 -180 Descending Miami Center
07:30PM 28.5825 -80.1378 240° Southwest 307 353 20,000  Level Miami Center
07:31PM 28.5453 -80.2075 239° Southwest 301 346 20,000  Level Miami Center
07:32PM 28.5122 -80.2869 245° Southwest 294 338 20,000  Level Miami Center
07:33PM 28.4933 -80.3808 257° West 277 319 20,000  Level Miami Center
07:34PM 28.4622 -80.4553 245° Southwest 277 319 20,000  Level Miami Center
07:35PM 28.4311 -80.5344 246° West 277 319 20,000  Level Miami Center
07:36PM 28.4000 -80.6044 243° Southwest 277 319 20,000  Level Miami Center
07:37PM 28.3667 -80.6811 244° Southwest 277 319 20,000  Level Miami Center
07:38PM 28.3333 -80.7600 244° Southwest 277 319 20,000  Level Miami Center
07:39PM 28.2978 -80.8344 242° Southwest 277 319 20,000  Level Miami Center
07:40PM 28.2644 -80.9108 244° Southwest 277 319 20,000 -240 Level Miami Center
07:41PM 28.2328 -80.9900 246° West 277 319 19,600 -900 Descending Miami Center
07:42PM 28.1972 -81.0664 242° Southwest 277 319 18,300 -1,140 Descending Miami Center
07:43PM 28.1639 -81.1403 243° Southwest 277 319 17,400 -600 Descending Miami Center
07:44PM 28.1303 -81.2167 243° Southwest 277 319 17,100 -180 Descending Miami Center
07:45PM 28.0967 -81.2908 243° Southwest 277 319 17,100  Level Miami Center
07:46PM 28.0569 -81.3622 238° Southwest 277 319 17,100  Level Miami Center
07:47PM 27.9831 -81.3828 194° South 262 302 17,100 -540 Level Miami Center
07:48PM 27.9058 -81.3844 181° South 267 307 16,100 -1,200 Descending Miami Center
07:49PM 27.8181 -81.3925 185° South 279 321 14,800 -1,080 Descending Miami Center
07:50PM 27.7508 -81.4017 187° South 279 321 14,000 -360 Descending Miami Center
07:51PM 27.6714 -81.4103 185° South 279 321 14,100  Climbing Miami Center
07:52PM 27.5939 -81.4189 186° South 279 321 14,100  Level Miami Center
07:53PM 27.5183 -81.4275 186° South 279 321 14,100  Level Miami Center
07:54PM 27.4408 -81.4361 186° South 279 321 14,100 -60 Level Miami Center
07:55PM 27.3633 -81.4447 186° South 279 321 14,000 -600 Descending Miami Center
07:56PM 27.2839 -81.4533 186° South 279 321 12,900 -1,200 Descending Miami Center
07:57PM 27.2042 -81.4642 187° South 279 321 11,600 -1,200 Descending Miami Center
07:58PM 27.1206 -81.4725 185° South 284 327 10,600 -840 Descending Miami Center
07:59PM 27.0428 -81.4811 186° South 284 327 10,000 -300 Descending Miami Center
08:00PM 26.9725 -81.4667 170° South 269 310 10,000  Level Miami Center
08:01PM 26.9108 -81.4317 153° Southeast 269 310 10,000  Level Miami Center
08:02PM 26.8347 -81.3936 156° South 275 316 10,000  Level Miami Center
08:03PM 26.7619 -81.3861 175° South 260 299 10,000  Level Miami Center
08:04PM 26.6886 -81.3950 186° South 260 299 10,000  Level Miami Center
08:06PM 26.5920 -81.3875 188° South  Level FlightAware Approximate
08:13PM 26.1719 -81.7118 246° West  Level FlightAware Approximate
08:14PM 26.1500 -81.7667 246° West  Level FlightAware Approximate
08:15PM 26.1524 -81.7756 246° West  Level Estimated
08:16PM 26.1524 -81.7756 246° West  Level Estimated
08:17PM 26.1524 -81.7756 246° West  Level Estimated
08:18PM 26.1524 -81.7756 246° West  Level Estimated
08:19PM 26.1524 -81.7756 246° West  Level Estimated
08:20PM 26.1524 -81.7756 246° West  Level Estimated
08:21PM 26.1524 -81.7756 246° West  Level Estimated
08:22PM 26.1524 -81.7756 246° West  Level Estimated
08:23PM 26.1524 -81.7756 246° West  Level Estimated
08:24PM 26.1524 -81.7756 246° West  Level Estimated